createdAt,value
2023-05-02T00:02:30.669Z,14.96
2023-05-02T00:07:32.801Z,14.88
2023-05-02T00:12:34.666Z,14.89
2023-05-02T00:17:36.716Z,14.83
2023-05-02T00:22:38.640Z,14.83
2023-05-02T00:27:40.248Z,14.57
2023-05-02T00:32:41.822Z,14.77
2023-05-02T00:37:43.487Z,14.75
2023-05-02T00:42:45.065Z,14.53
2023-05-02T00:47:46.691Z,14.65
2023-05-02T00:52:48.518Z,14.40
2023-05-02T00:57:50.261Z,14.34
2023-05-02T01:02:59.319Z,14.27
2023-05-02T01:08:28.056Z,14.62
2023-05-02T01:13:33.749Z,14.63
2023-05-02T01:18:36.860Z,14.60
2023-05-02T01:23:46.616Z,14.57
2023-05-02T01:28:54.090Z,14.58
2023-05-02T01:33:56.524Z,14.31
2023-05-02T01:38:59.254Z,14.41
2023-05-02T01:44:02.238Z,14.56
2023-05-02T01:49:06.857Z,14.49
2023-05-02T01:54:09.180Z,14.53
2023-05-02T01:59:13.397Z,14.49
2023-05-02T02:04:16.480Z,14.47
2023-05-02T02:09:18.190Z,14.41
2023-05-02T02:14:25.834Z,14.43
2023-05-02T02:19:29.766Z,14.36
2023-05-02T02:24:32.286Z,14.39
2023-05-02T02:29:33.882Z,14.11
2023-05-02T02:34:35.625Z,14.34
2023-05-02T02:39:46.204Z,14.28
2023-05-02T02:44:55.104Z,14.29
2023-05-02T02:50:11.056Z,14.29
2023-05-02T02:55:32.280Z,14.28
2023-05-02T03:00:35.202Z,14.24
2023-05-02T03:05:37.124Z,14.25
2023-05-02T03:10:38.804Z,14.28
2023-05-02T03:15:52.475Z,14.28
2023-05-02T03:20:59.075Z,14.18
2023-05-02T03:26:01.293Z,14.31
2023-05-02T03:31:03.648Z,14.28
2023-05-02T03:36:11.100Z,14.18
2023-05-02T03:41:14.163Z,14.19
2023-05-02T03:46:16.999Z,14.10
2023-05-02T03:51:20.051Z,14.03
2023-05-02T03:56:25.936Z,14.18
2023-05-02T04:01:38.279Z,14.04
2023-05-02T04:06:41.049Z,14.12
2023-05-02T04:11:44.072Z,14.13
2023-05-02T04:16:48.961Z,14.04
2023-05-02T04:21:53.537Z,14.05
2023-05-02T04:26:55.472Z,13.96
2023-05-02T04:31:57.149Z,14.16
2023-05-02T04:37:01.543Z,14.25
2023-05-02T04:42:03.832Z,14.24
2023-05-02T04:47:09.188Z,14.37
2023-05-02T04:52:10.924Z,14.34
2023-05-02T04:57:12.618Z,14.42
2023-05-02T05:02:18.905Z,14.41
2023-05-02T05:07:21.351Z,14.53
2023-05-02T05:12:25.456Z,14.48
2023-05-02T05:17:28.013Z,14.51
2023-05-02T05:22:29.785Z,14.60
2023-05-02T05:27:31.706Z,14.51
2023-05-02T05:32:34.088Z,14.48
2023-05-02T05:37:37.458Z,14.59
2023-05-02T05:42:40.926Z,14.73
2023-05-02T05:47:50.100Z,14.51
2023-05-02T05:52:52.451Z,14.92
2023-05-02T05:57:54.344Z,14.82
2023-05-02T06:02:56.490Z,14.95
2023-05-02T06:08:04.711Z,15.01
2023-05-02T06:13:07.260Z,15.07
2023-05-02T06:18:12.473Z,15.17
2023-05-02T06:23:14.092Z,15.25
2023-05-02T06:28:15.634Z,15.20
2023-05-02T06:33:17.193Z,15.29
2023-05-02T06:38:19.242Z,15.37
2023-05-02T06:43:20.889Z,15.41
2023-05-02T06:48:22.689Z,15.22
2023-05-02T06:53:24.259Z,15.44
2023-05-02T06:58:25.808Z,15.45
2023-05-02T07:03:27.382Z,15.60
2023-05-02T07:08:28.999Z,15.47
2023-05-02T07:13:30.656Z,15.28
2023-05-02T07:18:32.189Z,15.63
2023-05-02T07:23:33.995Z,15.73
2023-05-02T07:28:35.619Z,15.57
2023-05-02T07:33:37.180Z,15.71
2023-05-02T07:38:38.768Z,15.56
2023-05-02T07:43:40.303Z,15.35
2023-05-02T07:48:42.834Z,15.20
2023-05-02T07:53:45.564Z,15.31
2023-05-02T07:58:47.245Z,15.55
2023-05-02T08:03:49.871Z,15.55
2023-05-02T08:08:51.653Z,15.57
2023-05-02T08:13:53.299Z,15.75
2023-05-02T08:18:54.858Z,15.95
2023-05-02T08:23:58.576Z,15.92
2023-05-02T08:29:00.227Z,16.42
2023-05-02T08:34:01.925Z,16.28
2023-05-02T08:39:03.847Z,16.37
2023-05-02T08:44:07.513Z,16.25
2023-05-02T08:49:11.333Z,16.45
2023-05-02T08:54:16.962Z,16.45
2023-05-02T08:59:18.707Z,16.62
2023-05-02T09:04:24.097Z,16.77
2023-05-02T09:09:25.763Z,16.77
2023-05-02T09:14:27.646Z,16.79
2023-05-02T09:19:29.347Z,16.64
2023-05-02T09:24:30.987Z,16.68
2023-05-02T09:29:37.958Z,16.54
2023-05-02T09:34:39.649Z,16.78
2023-05-02T09:39:41.264Z,16.51
2023-05-02T09:44:43.125Z,16.49
2023-05-02T09:49:46.616Z,16.87
2023-05-02T09:54:50.762Z,17.05
2023-05-02T09:59:56.626Z,17.26
2023-05-02T10:04:59.013Z,16.90
2023-05-02T10:10:01.098Z,16.39
2023-05-02T10:15:04.265Z,16.62
2023-05-02T10:20:07.300Z,16.79
2023-05-02T10:25:09.609Z,16.89
2023-05-02T10:30:13.226Z,17.18
2023-05-02T10:35:16.139Z,16.98
2023-05-02T10:40:18.332Z,17.03
2023-05-02T10:45:36.776Z,17.19
2023-05-02T10:50:48.329Z,16.76
2023-05-02T10:56:29.364Z,17.40
2023-05-02T11:01:32.312Z,17.36
2023-05-02T11:06:36.332Z,17.35
2023-05-02T11:11:38.664Z,17.48
2023-05-02T11:16:59.254Z,17.17
2023-05-02T11:22:21.894Z,17.42
2023-05-02T11:27:33.566Z,17.33
2023-05-02T11:32:48.585Z,17.53
2023-05-02T11:37:57.748Z,17.62
2023-05-02T11:43:00.245Z,17.52
2023-05-02T11:48:06.970Z,17.57
2023-05-02T11:53:13.627Z,17.71
2023-05-02T11:58:20.004Z,17.49
2023-05-02T12:03:30.355Z,17.30
2023-05-02T12:08:32.322Z,17.37
2023-05-02T12:13:34.030Z,17.17
2023-05-02T12:18:36.168Z,17.30
2023-05-02T12:23:39.757Z,17.05
2023-05-02T12:28:58.152Z,17.25
2023-05-02T12:34:01.142Z,17.15
2023-05-02T12:39:04.514Z,17.44
2023-05-02T12:44:07.209Z,17.55
2023-05-02T12:49:10.176Z,16.94
2023-05-02T12:54:20.540Z,17.18
2023-05-02T12:59:29.477Z,16.89
2023-05-02T13:04:41.597Z,17.05
2023-05-02T13:09:43.230Z,17.15
2023-05-02T13:14:45.126Z,17.04
2023-05-02T13:19:57.766Z,17.26
2023-05-02T13:25:02.286Z,17.50
2023-05-02T13:30:06.700Z,17.40
2023-05-02T13:35:13.829Z,17.58
2023-05-02T13:40:15.550Z,17.56
2023-05-02T13:45:17.834Z,17.45
2023-05-02T13:50:19.480Z,17.09
2023-05-02T13:55:21.170Z,17.35
2023-05-02T14:00:22.893Z,17.30
2023-05-02T14:05:24.407Z,17.28
2023-05-02T14:10:26.004Z,17.20
2023-05-02T14:15:27.684Z,17.53
2023-05-02T14:20:29.420Z,17.51
2023-05-02T14:25:31.011Z,17.60
2023-05-02T14:30:32.607Z,17.77
2023-05-02T14:35:34.175Z,17.58
2023-05-02T14:40:35.815Z,17.39
2023-05-02T14:45:37.422Z,17.10
2023-05-02T14:50:39.699Z,17.10
2023-05-02T14:55:41.333Z,16.99
2023-05-02T15:00:43.090Z,15.83
2023-05-02T15:05:44.823Z,15.68
2023-05-02T15:10:46.415Z,15.27
2023-05-02T15:15:48.022Z,15.62
2023-05-02T15:20:49.550Z,15.48
2023-05-02T15:25:51.159Z,15.17
2023-05-02T15:30:52.788Z,15.35
2023-05-02T15:35:56.550Z,15.75
2023-05-02T15:40:59.916Z,15.38
2023-05-02T15:46:01.629Z,15.31
2023-05-02T15:51:05.289Z,15.81
2023-05-02T15:56:11.415Z,14.99
2023-05-02T16:01:13.052Z,14.93
2023-05-02T16:06:15.973Z,15.02
2023-05-02T16:11:17.589Z,14.78
2023-05-02T16:16:19.429Z,14.93
2023-05-02T16:21:21.160Z,14.87
2023-05-02T16:26:22.835Z,14.81
2023-05-02T16:31:24.475Z,14.93
2023-05-02T16:36:26.433Z,14.94
2023-05-02T16:41:28.260Z,15.06
2023-05-02T16:46:31.543Z,14.94
2023-05-02T16:51:33.238Z,14.75
2023-05-02T16:56:34.814Z,14.68
2023-05-02T17:01:36.433Z,14.74
2023-05-02T17:06:38.103Z,14.62
2023-05-02T17:11:39.846Z,14.43
2023-05-02T17:16:41.470Z,14.45
2023-05-02T17:21:43.092Z,14.56
2023-05-02T17:26:44.696Z,14.66
2023-05-02T17:31:46.669Z,14.59
2023-05-02T17:36:48.331Z,14.25
2023-05-02T17:41:49.932Z,14.32
2023-05-02T17:46:51.619Z,14.63
2023-05-02T17:51:53.317Z,14.63
2023-05-02T17:56:55.400Z,14.31
2023-05-02T18:01:57.147Z,14.14
2023-05-02T18:06:58.862Z,13.77
2023-05-02T18:12:04.142Z,13.89
2023-05-02T18:17:08.406Z,13.56
2023-05-02T18:22:11.449Z,13.61
2023-05-02T18:27:13.054Z,13.51
2023-05-02T18:32:14.850Z,13.50
2023-05-02T18:37:16.412Z,13.72
2023-05-02T18:42:18.080Z,13.61
2023-05-02T18:47:21.389Z,13.89
2023-05-02T18:52:23.096Z,13.41
2023-05-02T18:57:25.326Z,13.70
2023-05-02T19:02:27.970Z,13.52
2023-05-02T19:07:29.892Z,13.41
2023-05-02T19:12:31.512Z,13.65
2023-05-02T19:17:33.294Z,13.88
2023-05-02T19:22:37.056Z,13.68
2023-05-02T19:27:40.549Z,13.64
2023-05-02T19:32:42.471Z,13.33
2023-05-02T19:37:44.153Z,13.69
2023-05-02T19:42:45.798Z,13.61
2023-05-02T19:47:47.449Z,13.63
2023-05-02T19:52:50.252Z,13.57
2023-05-02T19:57:51.824Z,13.54
2023-05-02T20:02:53.431Z,13.44
2023-05-02T20:07:55.178Z,12.71
2023-05-02T20:12:56.858Z,12.72
2023-05-02T20:17:58.512Z,12.95
2023-05-02T20:23:00.211Z,12.67
2023-05-02T20:28:01.915Z,12.46
2023-05-02T20:33:14.076Z,12.65
2023-05-02T20:38:17.702Z,12.77
2023-05-02T20:43:20.240Z,12.89
2023-05-02T20:48:22.091Z,13.02
2023-05-02T20:53:24.670Z,12.97
2023-05-02T20:58:27.009Z,12.94
2023-05-02T21:03:28.845Z,12.97
2023-05-02T21:08:30.639Z,12.83
2023-05-02T21:13:32.247Z,12.85
2023-05-02T21:18:33.848Z,12.87
2023-05-02T21:23:35.475Z,12.79
2023-05-02T21:28:38.410Z,12.83
2023-05-02T21:33:41.462Z,12.87
2023-05-02T21:38:43.117Z,12.86
2023-05-02T21:43:45.131Z,12.80
2023-05-02T21:48:46.731Z,12.80
2023-05-02T21:53:48.363Z,12.46
2023-05-02T21:58:51.335Z,12.51
2023-05-02T22:03:52.961Z,12.53
2023-05-02T22:08:54.617Z,12.55
2023-05-02T22:13:56.300Z,12.58
2023-05-02T22:18:58.104Z,12.50
2023-05-02T22:23:59.754Z,12.59
2023-05-02T22:29:01.381Z,12.62
2023-05-02T22:34:02.947Z,12.33
2023-05-02T22:39:08.863Z,12.52
2023-05-02T22:44:11.300Z,12.42
2023-05-02T22:49:12.939Z,12.22
2023-05-02T22:54:15.218Z,12.33
2023-05-02T22:59:17.522Z,12.51
2023-05-02T23:04:19.258Z,12.47
2023-05-02T23:09:20.884Z,12.53
2023-05-02T23:14:23.377Z,12.48
2023-05-02T23:19:25.905Z,12.42
2023-05-02T23:24:28.120Z,12.35
2023-05-02T23:29:29.666Z,12.48
2023-05-02T23:34:31.366Z,12.28
2023-05-02T23:39:33.453Z,12.42
2023-05-02T23:44:35.115Z,12.36
2023-05-02T23:49:36.946Z,12.20
2023-05-02T23:54:38.493Z,12.25
2023-05-02T23:59:40.571Z,12.01
